Grenchen Airport

Airport
ICAO code: 
LSZG
Summary
ICAO Region: 
EUR
Territory: 
Location: 
Grenchen, Solothurn
Serving: 
Grenchen
Elevation: 
1411 ft
Coordinates: 
Aerial View: 
47° 10' 53.861" N, 7° 25' 1.88" E
Metar
Observation
LSZG 171650Z AUTO VRB02KT 9999 NSC 02/M00 Q1035
Station
Grenchen
Date/Time
2022-01-17 16:50:00
Wind speed
02 kts
Lowest cloud amount
nil significant cloud
Temperature
2°C
Dew point
-0°C
Humidity
86%
QNH
1035 hPa
Weather condition
n/a

Runways

Designator Length Width Surface Rops
7/25 0 0 UNK No/No
07L/25R 500 30 GRS No/No
07R/25L 700 20 GRS No/No
07C/25C 1000 23 ASP No/No
Airport map: 
Aerial View: 

SKYbrary Partners:

Safety knowledge contributed by: